Alakanuk, AK (99554)

4:41 AM AKST on February 25, 2017 (GMT -0900)
Saint Mary's | | Change Station
Active Advisory: Winter Weather Advisory

Elev 308 ft 62.06 °N, 163.30 °W | Updated 45 minutes ago

Overcast
Overcast
29 °F
Feels Like 18 °F
N
14
Wind Variable Wind from South
Gusts 22 mph

Today
High -- | Low -- °F
--% Chance of Precip.
Yesterday
High -- | Low -- °F
Precip. -- in
Pressure 30.48 in
Visibility 2.5 miles
Clouds Overcast 500 ft
Windchill 18 °F
Dew Point 28 °F
Humidity 96%
Rainfall 0.00 in
Snow Depth Not available.
9:13 AM 7:10 PM
Waning Crescent, 1% visible
METAR PASM 251256Z AUTO 17012G19KT 2 1/2SM -SN BR OVC005 M02/M02 A3043 RMK AO2 UPE44SNB44 SLP321 P0000 T10171022 FZRANO
Pressure 30.48 in
Visibility 2.5 miles
Clouds Overcast 500 ft
Windchill 18 °F
Dew Point 28 °F
Humidity 96%
Rainfall 0.00 in
Snow Depth Not available.
9:13 AM 7:10 PM
Waning Crescent, 1% visible
METAR PASM 251256Z AUTO 17012G19KT 2 1/2SM -SN BR OVC005 M02/M02 A3043 RMK AO2 UPE44SNB44 SLP321 P0000 T10171022 FZRANO

Get Your Daily Forecast Email!

Thanks for signing up!

Be on the lookout for a verification email in your inbox.

You'll start receiving the daily forecast at 8 AM.

×

10-Day Weather Forecast

Almanac

Astronomy

Feb. 25, 2017 Rise Set
Actual Time
Civil Twilight
Nautical Twilight
Astronomical Twilight
Moon
Length of Visible Light
Length of Day
Tomorrow will be .
, % of the Moon is Illuminated

Today's Extremes

State Highs State Lows

Community

WunderPhotos

Upload Photos

1,962,540 photos uploaded!

WunderBlog® & News

Nearby

Air Quality

  Air Quality AQ Index Pollutant
Not available.

Snow Depth

Station Depth Elevation

Earthquake Activity

City Distance Mag. Time & Date
Minimum magnitude displayed is 2.5.

Coastal Water Temperatures

Place Temperature

Stations

Nearby Weather Stations

Station Location Temp. Windchill Dew Point Humidity Wind Precip. Elev Updated Type
                   

Watches & Warnings

Winter Weather Advisory
Issued: 1:54 PM AKST Feb. 24, 2017 – National Weather Service

... Winter Weather Advisory remains in effect from 6 am Saturday
to 6 am akst Sunday...

* winds... east winds 15 to 30 mph with gusts to 45 mph.

* Blowing snow... reducing visibility to one half mile or less at
times.

* Snow... 4 to 7 inches.

* Timing... snow and winds will increase Saturday morning and
continue through Sunday morning.

* Impacts... visibility will be greatly reduced and snow will
accumulate into drifts. Whiteout conditions may occur. Travel
and outdoor activities will be difficult.

Precautionary/preparedness actions...

A Winter Weather Advisory means that one or more winter weather
hazards are expected to cause travel difficulties.